sensor_id;sensor_type;location;lat;lon;timestamp;P1;durP1;ratioP1;P2;durP2;ratioP2
71148;SDS011;59072;42.144;25.200;2023-07-02T00:02:08;11.45;;;7.60;;
71148;SDS011;59072;42.144;25.200;2023-07-02T00:04:33;14.50;;;8.38;;
71148;SDS011;59072;42.144;25.200;2023-07-02T00:06:58;11.95;;;7.93;;
71148;SDS011;59072;42.144;25.200;2023-07-02T00:09:24;9.98;;;7.53;;
71148;SDS011;59072;42.144;25.200;2023-07-02T00:11:50;10.70;;;7.85;;
71148;SDS011;59072;42.144;25.200;2023-07-02T00:14:15;10.05;;;7.30;;
71148;SDS011;59072;42.144;25.200;2023-07-02T00:16:44;12.07;;;7.90;;
71148;SDS011;59072;42.144;25.200;2023-07-02T00:19:14;12.02;;;7.82;;
71148;SDS011;59072;42.144;25.200;2023-07-02T00:21:40;10.90;;;8.43;;
71148;SDS011;59072;42.144;25.200;2023-07-02T00:24:06;11.20;;;7.50;;
71148;SDS011;59072;42.144;25.200;2023-07-02T00:26:34;10.48;;;7.85;;
71148;SDS011;59072;42.144;25.200;2023-07-02T00:29:01;12.48;;;8.25;;
71148;SDS011;59072;42.144;25.200;2023-07-02T00:31:29;11.50;;;7.75;;
71148;SDS011;59072;42.144;25.200;2023-07-02T00:33:57;12.05;;;8.77;;
71148;SDS011;59072;42.144;25.200;2023-07-02T00:36:22;10.85;;;8.25;;
71148;SDS011;59072;42.144;25.200;2023-07-02T00:38:48;13.07;;;8.52;;
71148;SDS011;59072;42.144;25.200;2023-07-02T00:41:14;11.75;;;7.75;;
71148;SDS011;59072;42.144;25.200;2023-07-02T00:43:43;12.68;;;8.57;;
71148;SDS011;59072;42.144;25.200;2023-07-02T00:46:18;10.43;;;8.15;;
71148;SDS011;59072;42.144;25.200;2023-07-02T00:48:50;10.25;;;7.68;;
71148;SDS011;59072;42.144;25.200;2023-07-02T00:51:23;11.27;;;8.02;;
71148;SDS011;59072;42.144;25.200;2023-07-02T00:53:51;11.65;;;8.10;;
71148;SDS011;59072;42.144;25.200;2023-07-02T00:56:19;11.98;;;8.35;;
71148;SDS011;59072;42.144;25.200;2023-07-02T00:58:48;12.07;;;8.73;;
71148;SDS011;59072;42.144;25.200;2023-07-02T01:01:16;10.25;;;8.15;;
71148;SDS011;59072;42.144;25.200;2023-07-02T01:06:22;15.30;;;8.50;;
71148;SDS011;59072;42.144;25.200;2023-07-02T01:08:55;12.65;;;8.40;;
71148;SDS011;59072;42.144;25.200;2023-07-02T01:11:34;11.75;;;7.93;;
71148;SDS011;59072;42.144;25.200;2023-07-02T01:14:05;12.05;;;8.90;;
71148;SDS011;59072;42.144;25.200;2023-07-02T01:16:35;11.85;;;8.38;;
71148;SDS011;59072;42.144;25.200;2023-07-02T01:19:04;13.00;;;8.45;;
71148;SDS011;59072;42.144;25.200;2023-07-02T01:21:35;12.15;;;9.00;;
71148;SDS011;59072;42.144;25.200;2023-07-02T01:24:01;12.90;;;9.13;;
71148;SDS011;59072;42.144;25.200;2023-07-02T01:26:29;12.73;;;9.18;;
71148;SDS011;59072;42.144;25.200;2023-07-02T01:28:59;11.75;;;8.15;;
71148;SDS011;59072;42.144;25.200;2023-07-02T01:31:25;12.65;;;9.38;;
71148;SDS011;59072;42.144;25.200;2023-07-02T01:33:51;12.23;;;8.38;;
71148;SDS011;59072;42.144;25.200;2023-07-02T01:36:17;14.00;;;8.95;;
71148;SDS011;59072;42.144;25.200;2023-07-02T01:38:45;13.27;;;8.95;;
71148;SDS011;59072;42.144;25.200;2023-07-02T01:41:10;14.52;;;8.63;;
71148;SDS011;59072;42.144;25.200;2023-07-02T01:43:36;13.77;;;8.80;;
71148;SDS011;59072;42.144;25.200;2023-07-02T01:46:01;14.20;;;8.30;;
71148;SDS011;59072;42.144;25.200;2023-07-02T01:48:27;15.00;;;9.70;;
71148;SDS011;59072;42.144;25.200;2023-07-02T01:50:55;15.43;;;9.57;;
71148;SDS011;59072;42.144;25.200;2023-07-02T01:53:21;14.82;;;9.13;;
71148;SDS011;59072;42.144;25.200;2023-07-02T01:55:49;17.63;;;9.93;;
71148;SDS011;59072;42.144;25.200;2023-07-02T01:58:16;21.00;;;10.18;;
71148;SDS011;59072;42.144;25.200;2023-07-02T02:00:42;16.77;;;9.60;;
71148;SDS011;59072;42.144;25.200;2023-07-02T02:03:10;16.58;;;10.05;;
71148;SDS011;59072;42.144;25.200;2023-07-02T02:05:35;14.05;;;9.45;;
71148;SDS011;59072;42.144;25.200;2023-07-02T02:08:03;15.88;;;9.98;;
71148;SDS011;59072;42.144;25.200;2023-07-02T02:12:56;17.70;;;9.70;;
71148;SDS011;59072;42.144;25.200;2023-07-02T02:15:21;20.23;;;10.82;;
71148;SDS011;59072;42.144;25.200;2023-07-02T02:17:47;19.38;;;10.60;;
71148;SDS011;59072;42.144;25.200;2023-07-02T02:20:12;22.17;;;11.23;;
71148;SDS011;59072;42.144;25.200;2023-07-02T02:22:38;19.80;;;11.50;;
71148;SDS011;59072;42.144;25.200;2023-07-02T02:25:03;18.50;;;11.68;;
71148;SDS011;59072;42.144;25.200;2023-07-02T02:27:29;18.10;;;10.73;;
71148;SDS011;59072;42.144;25.200;2023-07-02T02:29:56;18.17;;;11.35;;
71148;SDS011;59072;42.144;25.200;2023-07-02T02:32:24;18.27;;;10.52;;
71148;SDS011;59072;42.144;25.200;2023-07-02T02:34:49;15.88;;;10.65;;
71148;SDS011;59072;42.144;25.200;2023-07-02T02:37:15;17.52;;;9.75;;
71148;SDS011;59072;42.144;25.200;2023-07-02T02:39:40;14.02;;;9.20;;
71148;SDS011;59072;42.144;25.200;2023-07-02T02:42:06;15.05;;;9.38;;
71148;SDS011;59072;42.144;25.200;2023-07-02T02:44:33;16.35;;;10.38;;
71148;SDS011;59072;42.144;25.200;2023-07-02T02:46:59;14.38;;;9.45;;
71148;SDS011;59072;42.144;25.200;2023-07-02T02:49:24;16.27;;;10.13;;
71148;SDS011;59072;42.144;25.200;2023-07-02T02:51:50;17.50;;;9.30;;
71148;SDS011;59072;42.144;25.200;2023-07-02T02:56:46;13.10;;;9.38;;
71148;SDS011;59072;42.144;25.200;2023-07-02T03:01:36;15.60;;;9.52;;
71148;SDS011;59072;42.144;25.200;2023-07-02T03:04:02;16.00;;;9.55;;
71148;SDS011;59072;42.144;25.200;2023-07-02T03:06:27;12.43;;;9.32;;
71148;SDS011;59072;42.144;25.200;2023-07-02T03:08:53;16.75;;;9.60;;
71148;SDS011;59072;42.144;25.200;2023-07-02T03:11:19;13.95;;;10.32;;
71148;SDS011;59072;42.144;25.200;2023-07-02T03:13:44;16.83;;;10.88;;
71148;SDS011;59072;42.144;25.200;2023-07-02T03:16:09;16.58;;;11.00;;
71148;SDS011;59072;42.144;25.200;2023-07-02T03:18:35;17.05;;;10.52;;
71148;SDS011;59072;42.144;25.200;2023-07-02T03:23:28;18.27;;;11.40;;
71148;SDS011;59072;42.144;25.200;2023-07-02T03:25:53;21.73;;;12.30;;
71148;SDS011;59072;42.144;25.200;2023-07-02T03:28:19;22.63;;;12.30;;
71148;SDS011;59072;42.144;25.200;2023-07-02T03:30:46;19.27;;;11.75;;
71148;SDS011;59072;42.144;25.200;2023-07-02T03:33:12;16.25;;;11.43;;
71148;SDS011;59072;42.144;25.200;2023-07-02T03:35:37;24.23;;;12.40;;
71148;SDS011;59072;42.144;25.200;2023-07-02T03:38:03;20.33;;;10.80;;
71148;SDS011;59072;42.144;25.200;2023-07-02T03:42:56;17.50;;;10.23;;
71148;SDS011;59072;42.144;25.200;2023-07-02T03:47:49;20.95;;;10.85;;
71148;SDS011;59072;42.144;25.200;2023-07-02T03:50:14;16.85;;;10.35;;
71148;SDS011;59072;42.144;25.200;2023-07-02T03:52:40;21.98;;;10.45;;
71148;SDS011;59072;42.144;25.200;2023-07-02T03:55:05;19.92;;;10.90;;
71148;SDS011;59072;42.144;25.200;2023-07-02T03:57:33;21.73;;;10.95;;
71148;SDS011;59072;42.144;25.200;2023-07-02T03:59:59;23.52;;;9.98;;
71148;SDS011;59072;42.144;25.200;2023-07-02T04:02:24;22.65;;;10.65;;
71148;SDS011;59072;42.144;25.200;2023-07-02T04:04:53;24.60;;;11.00;;
71148;SDS011;59072;42.144;25.200;2023-07-02T04:07:20;26.63;;;11.07;;
71148;SDS011;59072;42.144;25.200;2023-07-02T04:09:46;18.27;;;10.50;;
71148;SDS011;59072;42.144;25.200;2023-07-02T04:12:11;18.70;;;10.50;;
71148;SDS011;59072;42.144;25.200;2023-07-02T04:14:36;18.45;;;10.60;;
71148;SDS011;59072;42.144;25.200;2023-07-02T04:17:02;19.30;;;10.90;;
71148;SDS011;59072;42.144;25.200;2023-07-02T04:19:30;15.52;;;10.95;;
71148;SDS011;59072;42.144;25.200;2023-07-02T04:21:55;18.67;;;11.32;;
71148;SDS011;59072;42.144;25.200;2023-07-02T04:24:21;16.70;;;10.57;;
71148;SDS011;59072;42.144;25.200;2023-07-02T04:26:51;19.48;;;11.10;;
71148;SDS011;59072;42.144;25.200;2023-07-02T04:29:16;15.82;;;11.77;;
71148;SDS011;59072;42.144;25.200;2023-07-02T04:31:42;17.73;;;11.77;;
71148;SDS011;59072;42.144;25.200;2023-07-02T04:34:07;18.40;;;11.68;;
71148;SDS011;59072;42.144;25.200;2023-07-02T04:36:33;16.73;;;11.20;;
71148;SDS011;59072;42.144;25.200;2023-07-02T04:38:58;21.55;;;12.48;;
71148;SDS011;59072;42.144;25.200;2023-07-02T04:41:38;16.42;;;11.88;;
71148;SDS011;59072;42.144;25.200;2023-07-02T04:44:04;20.23;;;11.13;;
71148;SDS011;59072;42.144;25.200;2023-07-02T04:46:54;16.65;;;11.05;;
71148;SDS011;59072;42.144;25.200;2023-07-02T04:49:28;16.95;;;11.00;;
71148;SDS011;59072;42.144;25.200;2023-07-02T04:51:56;14.93;;;10.60;;
71148;SDS011;59072;42.144;25.200;2023-07-02T04:54:21;21.67;;;11.00;;
71148;SDS011;59072;42.144;25.200;2023-07-02T04:56:49;17.88;;;10.73;;
71148;SDS011;59072;42.144;25.200;2023-07-02T04:59:15;18.35;;;11.25;;
71148;SDS011;59072;42.144;25.200;2023-07-02T05:01:43;16.60;;;11.88;;
71148;SDS011;59072;42.144;25.200;2023-07-02T05:04:11;15.73;;;11.82;;
71148;SDS011;59072;42.144;25.200;2023-07-02T05:06:42;17.45;;;12.07;;
71148;SDS011;59072;42.144;25.200;2023-07-02T05:09:07;19.23;;;12.63;;
71148;SDS011;59072;42.144;25.200;2023-07-02T05:11:33;17.50;;;13.60;;
71148;SDS011;59072;42.144;25.200;2023-07-02T05:16:29;19.80;;;13.43;;
71148;SDS011;59072;42.144;25.200;2023-07-02T05:18:56;17.30;;;12.30;;
71148;SDS011;59072;42.144;25.200;2023-07-02T05:21:22;20.77;;;13.57;;
71148;SDS011;59072;42.144;25.200;2023-07-02T05:26:15;20.10;;;13.52;;
71148;SDS011;59072;42.144;25.200;2023-07-02T05:28:40;21.20;;;15.20;;
71148;SDS011;59072;42.144;25.200;2023-07-02T05:31:06;21.63;;;14.38;;
71148;SDS011;59072;42.144;25.200;2023-07-02T05:33:31;22.45;;;14.13;;
71148;SDS011;59072;42.144;25.200;2023-07-02T05:35:58;21.80;;;14.60;;
71148;SDS011;59072;42.144;25.200;2023-07-02T05:38:24;20.33;;;14.68;;
71148;SDS011;59072;42.144;25.200;2023-07-02T05:40:49;19.98;;;14.80;;
71148;SDS011;59072;42.144;25.200;2023-07-02T05:45:42;20.20;;;14.63;;
71148;SDS011;59072;42.144;25.200;2023-07-02T05:48:08;23.33;;;15.27;;
71148;SDS011;59072;42.144;25.200;2023-07-02T05:50:36;20.52;;;15.60;;
71148;SDS011;59072;42.144;25.200;2023-07-02T05:53:06;22.63;;;14.85;;
71148;SDS011;59072;42.144;25.200;2023-07-02T05:55:39;19.63;;;14.52;;
71148;SDS011;59072;42.144;25.200;2023-07-02T05:58:08;21.40;;;15.13;;
71148;SDS011;59072;42.144;25.200;2023-07-02T06:00:33;22.08;;;15.07;;
71148;SDS011;59072;42.144;25.200;2023-07-02T06:03:06;22.45;;;15.23;;
71148;SDS011;59072;42.144;25.200;2023-07-02T06:08:19;27.58;;;14.98;;
71148;SDS011;59072;42.144;25.200;2023-07-02T06:10:47;25.50;;;15.80;;
71148;SDS011;59072;42.144;25.200;2023-07-02T06:13:15;24.38;;;14.90;;
71148;SDS011;59072;42.144;25.200;2023-07-02T06:15:41;23.98;;;14.32;;
71148;SDS011;59072;42.144;25.200;2023-07-02T06:18:17;19.75;;;13.90;;
71148;SDS011;59072;42.144;25.200;2023-07-02T06:20:43;21.95;;;13.60;;
71148;SDS011;59072;42.144;25.200;2023-07-02T06:23:08;23.52;;;14.57;;
71148;SDS011;59072;42.144;25.200;2023-07-02T06:25:39;23.38;;;15.73;;
71148;SDS011;59072;42.144;25.200;2023-07-02T06:28:17;22.15;;;13.60;;
71148;SDS011;59072;42.144;25.200;2023-07-02T06:30:42;21.33;;;12.40;;
71148;SDS011;59072;42.144;25.200;2023-07-02T06:33:07;20.52;;;13.68;;
71148;SDS011;59072;42.144;25.200;2023-07-02T06:35:33;21.33;;;12.95;;
71148;SDS011;59072;42.144;25.200;2023-07-02T06:37:58;20.80;;;14.45;;
71148;SDS011;59072;42.144;25.200;2023-07-02T06:40:24;20.25;;;13.40;;
71148;SDS011;59072;42.144;25.200;2023-07-02T06:42:49;21.60;;;13.80;;
71148;SDS011;59072;42.144;25.200;2023-07-02T06:45:14;21.42;;;12.85;;
71148;SDS011;59072;42.144;25.200;2023-07-02T06:47:40;22.88;;;13.82;;
71148;SDS011;59072;42.144;25.200;2023-07-02T06:50:05;23.52;;;15.02;;
71148;SDS011;59072;42.144;25.200;2023-07-02T06:52:31;21.17;;;13.32;;
71148;SDS011;59072;42.144;25.200;2023-07-02T06:54:56;19.42;;;12.82;;
71148;SDS011;59072;42.144;25.200;2023-07-02T06:57:24;18.48;;;13.23;;
71148;SDS011;59072;42.144;25.200;2023-07-02T06:59:52;20.10;;;12.63;;
71148;SDS011;59072;42.144;25.200;2023-07-02T07:02:24;19.92;;;13.20;;
71148;SDS011;59072;42.144;25.200;2023-07-02T07:04:49;20.27;;;13.90;;
71148;SDS011;59072;42.144;25.200;2023-07-02T07:07:15;17.45;;;12.55;;
71148;SDS011;59072;42.144;25.200;2023-07-02T07:09:40;17.85;;;11.27;;
71148;SDS011;59072;42.144;25.200;2023-07-02T07:12:05;16.23;;;11.25;;
71148;SDS011;59072;42.144;25.200;2023-07-02T07:14:31;18.50;;;11.40;;
71148;SDS011;59072;42.144;25.200;2023-07-02T07:16:57;17.17;;;10.85;;
71148;SDS011;59072;42.144;25.200;2023-07-02T07:19:22;18.73;;;10.98;;
71148;SDS011;59072;42.144;25.200;2023-07-02T07:21:51;14.77;;;10.55;;
71148;SDS011;59072;42.144;25.200;2023-07-02T07:24:16;14.98;;;10.65;;
71148;SDS011;59072;42.144;25.200;2023-07-02T07:26:46;14.30;;;10.45;;
71148;SDS011;59072;42.144;25.200;2023-07-02T07:29:11;14.82;;;10.10;;
71148;SDS011;59072;42.144;25.200;2023-07-02T07:31:41;14.27;;;9.82;;
71148;SDS011;59072;42.144;25.200;2023-07-02T07:34:07;13.88;;;9.35;;
71148;SDS011;59072;42.144;25.200;2023-07-02T07:36:32;17.67;;;10.20;;
71148;SDS011;59072;42.144;25.200;2023-07-02T07:39:06;15.60;;;10.48;;
71148;SDS011;59072;42.144;25.200;2023-07-02T07:41:31;14.30;;;9.65;;
71148;SDS011;59072;42.144;25.200;2023-07-02T07:43:57;12.82;;;9.00;;
71148;SDS011;59072;42.144;25.200;2023-07-02T07:46:23;16.23;;;10.13;;
71148;SDS011;59072;42.144;25.200;2023-07-02T07:48:48;15.27;;;10.55;;
71148;SDS011;59072;42.144;25.200;2023-07-02T07:51:14;13.60;;;10.00;;
71148;SDS011;59072;42.144;25.200;2023-07-02T07:53:39;13.52;;;9.95;;
71148;SDS011;59072;42.144;25.200;2023-07-02T07:56:05;14.23;;;10.40;;
71148;SDS011;59072;42.144;25.200;2023-07-02T07:58:31;15.15;;;10.00;;
71148;SDS011;59072;42.144;25.200;2023-07-02T08:00:58;12.90;;;9.35;;
71148;SDS011;59072;42.144;25.200;2023-07-02T08:03:24;13.52;;;9.30;;
71148;SDS011;59072;42.144;25.200;2023-07-02T08:05:49;13.40;;;8.65;;
71148;SDS011;59072;42.144;25.200;2023-07-02T08:08:17;13.70;;;9.65;;
71148;SDS011;59072;42.144;25.200;2023-07-02T08:10:45;11.10;;;8.18;;
71148;SDS011;59072;42.144;25.200;2023-07-02T08:13:11;13.57;;;8.70;;
71148;SDS011;59072;42.144;25.200;2023-07-02T08:15:37;11.27;;;8.50;;
71148;SDS011;59072;42.144;25.200;2023-07-02T08:18:02;12.30;;;7.93;;
71148;SDS011;59072;42.144;25.200;2023-07-02T08:20:28;12.80;;;8.00;;
71148;SDS011;59072;42.144;25.200;2023-07-02T08:23:01;12.25;;;7.88;;
71148;SDS011;59072;42.144;25.200;2023-07-02T08:25:28;10.50;;;7.63;;
71148;SDS011;59072;42.144;25.200;2023-07-02T08:27:56;11.32;;;7.38;;
71148;SDS011;59072;42.144;25.200;2023-07-02T08:30:29;8.98;;;6.50;;
71148;SDS011;59072;42.144;25.200;2023-07-02T08:32:55;10.20;;;7.20;;
71148;SDS011;59072;42.144;25.200;2023-07-02T08:35:22;11.52;;;7.13;;
71148;SDS011;59072;42.144;25.200;2023-07-02T08:37:48;11.00;;;7.88;;
71148;SDS011;59072;42.144;25.200;2023-07-02T08:40:22;9.60;;;6.40;;
71148;SDS011;59072;42.144;25.200;2023-07-02T08:42:47;9.98;;;6.47;;
71148;SDS011;59072;42.144;25.200;2023-07-02T08:45:15;9.80;;;6.85;;
71148;SDS011;59072;42.144;25.200;2023-07-02T08:47:46;9.40;;;6.35;;
71148;SDS011;59072;42.144;25.200;2023-07-02T08:50:18;9.48;;;6.57;;
71148;SDS011;59072;42.144;25.200;2023-07-02T08:52:46;8.77;;;6.38;;
71148;SDS011;59072;42.144;25.200;2023-07-02T08:55:11;9.32;;;6.47;;
71148;SDS011;59072;42.144;25.200;2023-07-02T08:57:37;8.20;;;5.95;;
71148;SDS011;59072;42.144;25.200;2023-07-02T09:00:08;13.10;;;6.50;;
71148;SDS011;59072;42.144;25.200;2023-07-02T09:02:35;9.20;;;6.47;;
71148;SDS011;59072;42.144;25.200;2023-07-02T09:05:01;10.07;;;6.15;;
71148;SDS011;59072;42.144;25.200;2023-07-02T09:07:44;9.50;;;6.10;;
71148;SDS011;59072;42.144;25.200;2023-07-02T09:13:13;9.55;;;6.32;;
71148;SDS011;59072;42.144;25.200;2023-07-02T09:15:39;11.73;;;6.20;;
71148;SDS011;59072;42.144;25.200;2023-07-02T09:18:15;10.43;;;6.70;;
71148;SDS011;59072;42.144;25.200;2023-07-02T09:20:44;8.65;;;6.07;;
71148;SDS011;59072;42.144;25.200;2023-07-02T09:23:10;12.13;;;7.05;;
71148;SDS011;59072;42.144;25.200;2023-07-02T09:25:39;8.35;;;5.55;;
71148;SDS011;59072;42.144;25.200;2023-07-02T09:28:19;12.45;;;6.72;;
71148;SDS011;59072;42.144;25.200;2023-07-02T09:30:55;8.38;;;5.60;;
71148;SDS011;59072;42.144;25.200;2023-07-02T09:33:24;9.75;;;5.70;;
71148;SDS011;59072;42.144;25.200;2023-07-02T09:35:54;9.93;;;5.90;;
71148;SDS011;59072;42.144;25.200;2023-07-02T09:38:22;9.85;;;6.10;;
71148;SDS011;59072;42.144;25.200;2023-07-02T09:40:52;10.27;;;5.97;;
71148;SDS011;59072;42.144;25.200;2023-07-02T09:43:26;9.55;;;6.13;;
71148;SDS011;59072;42.144;25.200;2023-07-02T09:45:52;9.93;;;6.40;;
71148;SDS011;59072;42.144;25.200;2023-07-02T09:48:25;9.38;;;6.05;;
71148;SDS011;59072;42.144;25.200;2023-07-02T09:51:17;8.75;;;5.47;;
71148;SDS011;59072;42.144;25.200;2023-07-02T09:54:02;10.00;;;5.97;;
71148;SDS011;59072;42.144;25.200;2023-07-02T09:56:30;9.73;;;6.15;;
71148;SDS011;59072;42.144;25.200;2023-07-02T09:58:55;8.82;;;6.10;;
71148;SDS011;59072;42.144;25.200;2023-07-02T10:01:21;9.00;;;5.68;;
71148;SDS011;59072;42.144;25.200;2023-07-02T10:03:47;9.07;;;6.18;;
71148;SDS011;59072;42.144;25.200;2023-07-02T10:06:15;8.82;;;6.32;;
71148;SDS011;59072;42.144;25.200;2023-07-02T10:08:52;8.85;;;6.20;;
71148;SDS011;59072;42.144;25.200;2023-07-02T10:11:32;10.20;;;6.55;;
71148;SDS011;59072;42.144;25.200;2023-07-02T10:14:01;9.20;;;6.13;;
71148;SDS011;59072;42.144;25.200;2023-07-02T10:16:27;9.70;;;5.95;;
71148;SDS011;59072;42.144;25.200;2023-07-02T10:18:53;10.05;;;6.30;;
71148;SDS011;59072;42.144;25.200;2023-07-02T10:21:21;9.48;;;6.63;;
71148;SDS011;59072;42.144;25.200;2023-07-02T10:23:49;9.20;;;5.65;;
71148;SDS011;59072;42.144;25.200;2023-07-02T10:26:16;10.30;;;6.75;;
71148;SDS011;59072;42.144;25.200;2023-07-02T10:28:42;10.43;;;5.90;;
71148;SDS011;59072;42.144;25.200;2023-07-02T10:31:22;9.45;;;6.28;;
71148;SDS011;59072;42.144;25.200;2023-07-02T10:33:48;9.35;;;6.00;;
71148;SDS011;59072;42.144;25.200;2023-07-02T10:36:22;17.00;;;7.07;;
71148;SDS011;59072;42.144;25.200;2023-07-02T10:38:50;9.90;;;6.05;;
71148;SDS011;59072;42.144;25.200;2023-07-02T10:41:23;11.38;;;6.53;;
71148;SDS011;59072;42.144;25.200;2023-07-02T10:43:53;11.90;;;6.80;;
71148;SDS011;59072;42.144;25.200;2023-07-02T10:46:21;9.45;;;5.95;;
71148;SDS011;59072;42.144;25.200;2023-07-02T10:48:50;10.80;;;6.28;;
71148;SDS011;59072;42.144;25.200;2023-07-02T10:51:34;9.27;;;6.25;;
71148;SDS011;59072;42.144;25.200;2023-07-02T10:54:00;10.10;;;6.22;;
71148;SDS011;59072;42.144;25.200;2023-07-02T10:56:27;8.60;;;6.35;;
71148;SDS011;59072;42.144;25.200;2023-07-02T10:58:54;10.90;;;6.43;;
71148;SDS011;59072;42.144;25.200;2023-07-02T11:01:27;11.95;;;6.82;;
71148;SDS011;59072;42.144;25.200;2023-07-02T11:03:59;11.35;;;6.72;;
71148;SDS011;59072;42.144;25.200;2023-07-02T11:06:32;13.02;;;7.03;;
71148;SDS011;59072;42.144;25.200;2023-07-02T11:08:58;10.02;;;7.07;;
71148;SDS011;59072;42.144;25.200;2023-07-02T11:11:26;11.13;;;6.35;;
71148;SDS011;59072;42.144;25.200;2023-07-02T11:13:54;12.20;;;6.38;;
71148;SDS011;59072;42.144;25.200;2023-07-02T11:21:51;10.43;;;7.22;;
71148;SDS011;59072;42.144;25.200;2023-07-02T11:24:26;9.93;;;6.40;;
71148;SDS011;59072;42.144;25.200;2023-07-02T11:27:02;11.93;;;6.80;;
71148;SDS011;59072;42.144;25.200;2023-07-02T11:29:34;10.48;;;6.43;;
71148;SDS011;59072;42.144;25.200;2023-07-02T11:34:36;12.10;;;7.28;;
71148;SDS011;59072;42.144;25.200;2023-07-02T11:37:02;12.57;;;7.38;;
71148;SDS011;59072;42.144;25.200;2023-07-02T11:39:30;11.27;;;6.85;;
71148;SDS011;59072;42.144;25.200;2023-07-02T11:42:06;11.98;;;7.10;;
71148;SDS011;59072;42.144;25.200;2023-07-02T11:44:31;10.75;;;7.00;;
71148;SDS011;59072;42.144;25.200;2023-07-02T11:47:05;9.88;;;6.47;;
71148;SDS011;59072;42.144;25.200;2023-07-02T11:49:30;10.75;;;6.78;;
71148;SDS011;59072;42.144;25.200;2023-07-02T11:51:59;10.15;;;6.22;;
71148;SDS011;59072;42.144;25.200;2023-07-02T11:54:31;12.50;;;7.90;;
71148;SDS011;59072;42.144;25.200;2023-07-02T11:56:58;24.70;;;9.25;;
71148;SDS011;59072;42.144;25.200;2023-07-02T11:59:24;15.60;;;8.35;;
71148;SDS011;59072;42.144;25.200;2023-07-02T12:01:52;15.43;;;7.65;;
71148;SDS011;59072;42.144;25.200;2023-07-02T12:04:17;12.30;;;7.57;;
71148;SDS011;59072;42.144;25.200;2023-07-02T12:06:42;13.75;;;7.93;;
71148;SDS011;59072;42.144;25.200;2023-07-02T12:09:08;13.68;;;7.55;;
71148;SDS011;59072;42.144;25.200;2023-07-02T12:11:37;11.75;;;7.72;;
71148;SDS011;59072;42.144;25.200;2023-07-02T12:14:03;13.32;;;8.05;;
71148;SDS011;59072;42.144;25.200;2023-07-02T12:16:29;12.15;;;8.73;;
71148;SDS011;59072;42.144;25.200;2023-07-02T12:18:54;13.25;;;8.30;;
71148;SDS011;59072;42.144;25.200;2023-07-02T12:21:23;14.52;;;8.25;;
71148;SDS011;59072;42.144;25.200;2023-07-02T12:23:48;12.23;;;8.00;;
71148;SDS011;59072;42.144;25.200;2023-07-02T12:26:13;14.40;;;8.90;;
71148;SDS011;59072;42.144;25.200;2023-07-02T12:28:41;11.85;;;8.25;;
71148;SDS011;59072;42.144;25.200;2023-07-02T12:33:37;11.57;;;8.13;;
71148;SDS011;59072;42.144;25.200;2023-07-02T12:36:08;14.57;;;8.82;;
71148;SDS011;59072;42.144;25.200;2023-07-02T12:38:39;14.70;;;8.90;;
71148;SDS011;59072;42.144;25.200;2023-07-02T12:41:09;12.70;;;7.57;;
71148;SDS011;59072;42.144;25.200;2023-07-02T12:46:02;12.40;;;7.57;;
71148;SDS011;59072;42.144;25.200;2023-07-02T12:48:27;12.95;;;8.18;;
71148;SDS011;59072;42.144;25.200;2023-07-02T12:50:56;12.27;;;7.53;;
71148;SDS011;59072;42.144;25.200;2023-07-02T12:53:23;14.07;;;8.23;;
71148;SDS011;59072;42.144;25.200;2023-07-02T12:55:49;12.27;;;8.57;;
71148;SDS011;59072;42.144;25.200;2023-07-02T12:58:15;9.20;;;6.65;;
71148;SDS011;59072;42.144;25.200;2023-07-02T13:00:40;12.60;;;7.60;;
71148;SDS011;59072;42.144;25.200;2023-07-02T13:03:09;11.18;;;7.18;;
71148;SDS011;59072;42.144;25.200;2023-07-02T13:05:40;10.45;;;6.85;;
71148;SDS011;59072;42.144;25.200;2023-07-02T13:08:09;10.52;;;6.90;;
71148;SDS011;59072;42.144;25.200;2023-07-02T13:10:35;11.13;;;6.60;;
71148;SDS011;59072;42.144;25.200;2023-07-02T13:13:00;10.13;;;6.78;;
71148;SDS011;59072;42.144;25.200;2023-07-02T13:15:33;12.43;;;7.32;;
71148;SDS011;59072;42.144;25.200;2023-07-02T13:17:59;11.63;;;6.13;;
71148;SDS011;59072;42.144;25.200;2023-07-02T13:20:25;11.57;;;7.43;;
71148;SDS011;59072;42.144;25.200;2023-07-02T13:25:22;10.40;;;6.38;;
71148;SDS011;59072;42.144;25.200;2023-07-02T13:27:53;8.95;;;6.40;;
71148;SDS011;59072;42.144;25.200;2023-07-02T13:30:22;9.77;;;6.20;;
71148;SDS011;59072;42.144;25.200;2023-07-02T13:32:55;11.27;;;6.80;;
71148;SDS011;59072;42.144;25.200;2023-07-02T13:35:23;9.88;;;6.80;;
71148;SDS011;59072;42.144;25.200;2023-07-02T13:38:06;12.40;;;7.68;;
71148;SDS011;59072;42.144;25.200;2023-07-02T13:40:34;12.45;;;7.22;;
71148;SDS011;59072;42.144;25.200;2023-07-02T13:43:09;11.55;;;6.78;;
71148;SDS011;59072;42.144;25.200;2023-07-02T13:45:39;10.13;;;6.78;;
71148;SDS011;59072;42.144;25.200;2023-07-02T13:48:05;10.85;;;6.68;;
71148;SDS011;59072;42.144;25.200;2023-07-02T13:50:42;9.65;;;6.93;;
71148;SDS011;59072;42.144;25.200;2023-07-02T13:53:15;11.10;;;7.05;;
71148;SDS011;59072;42.144;25.200;2023-07-02T13:58:05;11.53;;;6.93;;
71148;SDS011;59072;42.144;25.200;2023-07-02T14:00:31;11.52;;;7.47;;
71148;SDS011;59072;42.144;25.200;2023-07-02T14:02:56;10.13;;;7.32;;
71148;SDS011;59072;42.144;25.200;2023-07-02T14:05:24;11.35;;;7.93;;
71148;SDS011;59072;42.144;25.200;2023-07-02T14:07:50;11.25;;;7.82;;
71148;SDS011;59072;42.144;25.200;2023-07-02T14:10:18;12.75;;;8.18;;
71148;SDS011;59072;42.144;25.200;2023-07-02T14:12:44;11.75;;;7.75;;
71148;SDS011;59072;42.144;25.200;2023-07-02T14:17:37;12.77;;;7.70;;
71148;SDS011;59072;42.144;25.200;2023-07-02T14:20:02;12.95;;;8.23;;
71148;SDS011;59072;42.144;25.200;2023-07-02T14:22:28;10.70;;;7.90;;
71148;SDS011;59072;42.144;25.200;2023-07-02T14:27:21;13.25;;;8.40;;
71148;SDS011;59072;42.144;25.200;2023-07-02T14:29:50;12.77;;;9.38;;
71148;SDS011;59072;42.144;25.200;2023-07-02T14:32:15;12.40;;;8.23;;
71148;SDS011;59072;42.144;25.200;2023-07-02T14:34:49;13.95;;;8.65;;
71148;SDS011;59072;42.144;25.200;2023-07-02T14:37:15;14.32;;;8.20;;
71148;SDS011;59072;42.144;25.200;2023-07-02T14:39:40;15.10;;;8.63;;
71148;SDS011;59072;42.144;25.200;2023-07-02T14:42:05;13.27;;;8.18;;
71148;SDS011;59072;42.144;25.200;2023-07-02T14:44:32;13.32;;;8.85;;
71148;SDS011;59072;42.144;25.200;2023-07-02T14:47:00;14.75;;;8.82;;
71148;SDS011;59072;42.144;25.200;2023-07-02T14:49:27;13.20;;;9.13;;
71148;SDS011;59072;42.144;25.200;2023-07-02T14:51:53;13.55;;;8.77;;
71148;SDS011;59072;42.144;25.200;2023-07-02T14:54:18;15.45;;;8.95;;
71148;SDS011;59072;42.144;25.200;2023-07-02T14:56:44;15.60;;;9.40;;
71148;SDS011;59072;42.144;25.200;2023-07-02T14:59:09;13.95;;;8.98;;
71148;SDS011;59072;42.144;25.200;2023-07-02T15:01:39;14.88;;;8.70;;
71148;SDS011;59072;42.144;25.200;2023-07-02T15:04:05;17.15;;;10.63;;
71148;SDS011;59072;42.144;25.200;2023-07-02T15:06:31;14.27;;;9.05;;
71148;SDS011;59072;42.144;25.200;2023-07-02T15:09:00;14.75;;;9.43;;
71148;SDS011;59072;42.144;25.200;2023-07-02T15:11:29;25.63;;;22.95;;
71148;SDS011;59072;42.144;25.200;2023-07-02T15:14:04;21.20;;;16.02;;
71148;SDS011;59072;42.144;25.200;2023-07-02T15:16:29;14.70;;;10.45;;